Latest Weather Observations for Evans Head

IDN60801

Issued at 9:53 am EDT Tuesday 18 January 2022 (issued every 10 minutes, with the page automatically refreshed every 10 minutes)

About weather observations | Map of weather stations | Latest weather observations for NSW | Other Formats
Station Details ID: 058212 Name: EVANS HEAD RAAF BOMBING RANGE AWS Lat: -29.18 Lon: 153.40 Height: 62.5 m
Data from the previous 72 hours. | See also: Recent months at Evans Head
Date/Time
EDT
Temp
°C
App
Temp
°C
Dew
Point
°C
Rel
Hum
%
Delta-T
°C
Wind Press
QNH
hPa
Press
MSL
hPa
Rain since
9am
mm
Dir  Spd
km/h
Gust
km/h
Spd
kts
Gust
kts
18/09:30am 27.7 28.4 21.5 69 4.1 NNE 20 33 11 18 1012.2 1011.9 0.0
18/09:00am 27.4 29.2 21.9 72 3.7 NNE 15 28 8 15 1012.3 1012.0 0.0
18/08:30am 26.9 28.2 22.3 76 3.1 N 19 30 10 16 1012.1 1011.8 0.0
18/08:00am 25.8 27.6 22.5 82 2.2 NNE 17 26 9 14 1012.1 1011.8 0.0
18/07:30am 24.1 27.0 22.4 90 1.1 N 11 20 6 11 1011.8 1011.5 0.0
18/07:00am 22.7 24.9 21.9 95 0.5 N 13 17 7 9 1011.6 1011.3 0.0
18/06:30am 22.0 23.9 21.3 96 0.5 N 13 17 7 9 1011.4 1011.1 0.0
18/06:00am 22.2 24.2 21.5 96 0.5 N 13 17 7 9 1011.1 1010.8 0.0
18/05:30am 22.2 24.2 21.5 96 0.5 N 13 15 7 8 1011.0 1010.7 0.0
18/05:00am 22.1 24.0 21.3 95 0.5 NNE 13 19 7 10 1010.9 1010.6 0.0
18/04:30am 22.1 24.0 21.4 96 0.5 N 13 17 7 9 1010.8 1010.5 0.0
18/04:00am 22.0 24.7 21.3 96 0.5 NNE 9 13 5 7 1010.9 1010.6 0.0
18/03:30am 22.1 24.4 21.4 96 0.5 NNE 11 13 6 7 1010.7 1010.4 0.0
18/03:00am 22.1 24.4 21.3 95 0.5 N 11 17 6 9 1010.8 1010.5 0.0
18/02:30am 22.2 24.2 21.5 96 0.5 N 13 17 7 9 1011.2 1010.9 0.0
18/02:00am 22.1 24.8 21.3 95 0.5 N 9 13 5 7 1011.6 1011.3 0.0
18/01:30am 22.2 25.3 21.4 95 0.5 N 7 11 4 6 1011.7 1011.4 0.0
18/01:00am 22.3 24.6 21.3 94 0.7 N 11 17 6 9 1011.7 1011.4 0.0
18/12:30am 22.4 24.3 21.4 94 0.7 N 13 17 7 9 1011.8 1011.5 0.0
18/12:00am 22.5 24.4 21.3 93 0.8 N 13 17 7 9 1012.1 1011.8 0.0
 
Date/Time
EDT
Temp
°C
App
Temp
°C
Dew
Point
°C
Rel
Hum
%
Delta-T
°C
Wind Press
QNH
hPa
Press
MSL
hPa
Rain since
9am
mm
Dir  Spd
km/h
Gust
km/h
Spd
kts
Gust
kts
17/11:30pm 22.7 24.6 21.3 92 0.9 N 13 17 7 9 1012.3 1012.0 0.0
17/11:00pm 22.9 24.8 21.4 91 1.0 N 13 17 7 9 1012.3 1012.0 0.0
17/10:30pm 23.0 24.9 21.3 90 1.1 N 13 19 7 10 1012.5 1012.2 0.0
17/10:00pm 23.1 24.6 21.2 89 1.2 N 15 19 8 10 1012.1 1011.8 0.0
17/09:30pm 23.2 24.6 21.1 88 1.4 N 15 20 8 11 1011.7 1011.4 0.0
17/09:00pm 23.6 24.2 21.1 86 1.6 N 19 24 10 13 1011.4 1011.1 0.0
17/08:30pm 23.8 24.3 20.9 84 1.9 N 19 28 10 15 1011.2 1010.9 0.0
17/08:00pm 24.1 25.1 21.0 83 2.0 N 17 33 9 18 1010.8 1010.5 0.0
17/07:30pm 24.4 25.0 21.1 82 2.2 NNE 19 30 10 16 1010.5 1010.2 0.0
17/07:00pm 24.9 25.4 21.2 80 2.4 NNE 20 32 11 17 1010.6 1010.3 0.0
17/06:30pm 25.9 26.7 21.3 76 3.1 NNE 19 35 10 19 1010.0 1009.7 0.0
17/06:00pm 26.2 26.2 21.6 76 3.1 NNE 24 39 13 21 1009.5 1009.2 0.0
17/05:30pm 26.8 27.6 22.4 77 3.0 NNE 22 35 12 19 1009.5 1009.2 0.0
17/05:00pm 26.9 27.7 22.5 77 3.0 NNE 22 43 12 23 1009.5 1009.2 0.0
17/04:30pm 27.7 28.2 22.6 74 3.5 NNE 24 43 13 23 1009.4 1009.1 0.0
17/04:00pm 27.8 28.0 22.1 71 3.8 NNE 24 39 13 21 1009.7 1009.4 0.0
17/03:30pm 28.5 29.4 22.7 71 4.0 NE 22 37 12 20 1009.9 1009.6 0.0
17/03:00pm 27.7 28.4 22.9 75 3.3 ENE 24 41 13 22 1010.0 1009.7 0.0
17/02:30pm 28.0 28.8 23.2 75 3.3 ENE 24 32 13 17 1010.1 1009.8 0.0
17/02:00pm 28.6 29.7 23.1 72 3.8 ENE 22 33 12 18 1010.2 1009.9 0.0
17/01:30pm 29.1 30.4 22.6 68 4.4 ENE 20 28 11 15 1010.4 1010.1 0.0
17/01:00pm 28.6 29.7 22.3 68 4.3 ENE 20 26 11 14 1010.7 1010.4 0.0
17/12:30pm 28.4 30.4 22.9 72 3.8 E 17 24 9 13 1010.9 1010.6 0.0
17/12:00pm 28.4 30.1 23.1 73 3.6 ESE 19 24 10 13 1010.7 1010.4 0.0
17/11:30am 28.1 29.9 22.6 72 3.7 ESE 17 20 9 11 1010.7 1010.4 0.0
17/11:00am 29.1 31.3 20.5 59 5.7 NNE 9 13 5 7 1010.9 1010.6 0.0
17/10:30am 30.4 33.3 21.8 60 5.8 NNW 9 17 5 9 1011.0 1010.7 0.0
17/10:00am 29.4 33.4 23.1 69 4.3 NW 7 13 4 7 1011.3 1011.0 0.0
17/09:30am 27.0 30.4 22.0 74 3.4 WNW 7 13 4 7 1011.4 1011.1 0.0
17/09:00am 26.1 29.0 21.7 77 2.9 W 9 13 5 7 1011.1 1010.8 0.0
17/08:30am 26.0 29.7 22.5 81 2.4 W 7 15 4 8 1011.1 1010.8 0.0
17/08:00am 24.1 26.9 21.6 86 1.7 W 9 11 5 6 1010.7 1010.4 0.0
17/07:30am 22.6 26.1 22.1 97 0.3 WNW 7 11 4 6 1010.9 1010.6 0.0
17/07:00am 22.2 26.1 21.9 98 0.2 NW 4 7 2 4 1010.6 1010.3 0.0
17/06:30am 21.6 24.8 21.3 98 0.2 WNW 6 7 3 4 1010.7 1010.4 0.0
17/06:00am 21.2 23.5 20.7 97 0.3 NW 9 13 5 7 1009.7 1009.4 0.0
17/05:30am 21.1 23.4 20.6 97 0.3 NW 9 13 5 7 1008.8 1008.5 0.0
17/05:00am 21.2 23.5 20.7 97 0.3 NNW 9 11 5 6 1009.4 1009.1 0.0
17/04:30am 21.4 24.2 20.9 97 0.3 NNW 7 9 4 5 1009.3 1009.0 0.0
17/04:00am 21.7 24.2 21.0 96 0.5 NNW 9 15 5 8 1009.0 1008.7 0.0
17/03:30am 22.0 24.7 21.3 96 0.5 NNW 9 11 5 6 1009.0 1008.7 0.0
17/03:00am 22.1 25.2 21.4 96 0.5 NNW 7 9 4 5 1009.3 1009.0 0.0
17/02:30am 22.4 25.6 21.7 96 0.5 N 7 11 4 6 1009.3 1009.0 0.0
17/02:00am 22.6 25.6 21.9 96 0.5 N 9 15 5 8 1009.4 1009.1 0.0
17/01:30am 22.7 25.3 22.0 96 0.5 N 11 17 6 9 1009.6 1009.3 0.0
17/01:00am 22.9 25.6 22.1 95 0.5 N 11 15 6 8 1009.4 1009.1 0.0
17/12:30am 23.1 24.8 22.3 95 0.5 N 17 24 9 13 1009.6 1009.3 0.0
17/12:00am 23.2 25.2 22.2 94 0.7 N 15 22 8 12 1009.6 1009.3 0.0
 
Date/Time
EDT
Temp
°C
App
Temp
°C
Dew
Point
°C
Rel
Hum
%
Delta-T
°C
Wind Press
QNH
hPa
Press
MSL
hPa
Rain since
9am
mm
Dir  Spd
km/h
Gust
km/h
Spd
kts
Gust
kts
16/11:30pm 23.2 25.2 22.2 94 0.7 N 15 20 8 11 1010.0 1009.7 0.0
16/11:00pm 23.2 26.2 22.0 93 0.8 N 9 13 5 7 1010.3 1010.0 0.0
16/10:30pm 23.1 25.6 21.7 92 0.9 N 11 20 6 11 1010.0 1009.7 0.0
16/10:00pm 23.1 24.3 21.5 91 1.1 N 17 24 9 13 1009.1 1008.8 0.0
16/09:30pm 22.7 24.5 21.2 91 1.0 N 13 22 7 12 1009.0 1008.7 0.0
16/09:00pm 22.8 24.5 20.9 89 1.2 N 13 17 7 9 1008.5 1008.2 0.0
16/08:30pm 23.3 25.4 21.0 87 1.5 NNE 11 17 6 9 1008.5 1008.2 0.0
16/08:00pm 23.6 25.3 20.9 85 1.8 NNE 13 17 7 9 1007.8 1007.5 0.0
16/07:30pm 24.3 26.0 21.0 82 2.2 N 13 19 7 10 1007.3 1007.0 0.0
16/07:00pm 24.6 26.4 21.1 81 2.3 N 13 19 7 10 1006.7 1006.4 0.0
16/06:30pm 25.0 26.7 20.9 78 2.7 N 13 20 7 11 1006.7 1006.4 0.0
16/06:00pm 25.0 26.5 20.5 76 3.0 NNE 13 17 7 9 1006.5 1006.2 0.0
16/05:30pm 25.1 25.4 19.7 72 3.5 N 17 28 9 15 1006.5 1006.2 0.0
16/05:00pm 26.0 27.6 21.4 76 3.1 NNE 15 24 8 13 1005.9 1005.6 0.0
16/04:30pm 27.3 29.8 21.8 72 3.7 NNE 11 17 6 9 1006.1 1005.8 0.0
16/04:00pm 27.4 29.1 21.0 68 4.3 NE 13 22 7 12 1006.2 1005.9 0.0
16/03:30pm 28.7 30.5 21.2 64 5.0 NE 13 24 7 13 1006.2 1005.9 0.0
16/03:00pm 28.3 29.3 20.3 62 5.3 NNE 15 24 8 13 1006.5 1006.2 0.0
16/02:30pm 29.3 31.4 22.5 67 4.6 NE 15 26 8 14 1006.2 1005.9 0.0
16/02:00pm 28.3 29.5 20.6 63 5.1 NE 15 26 8 14 1006.7 1006.4 0.0
16/01:30pm 26.9 28.0 21.2 71 3.8 NE 17 22 9 12 1006.8 1006.5 0.0
16/01:00pm 28.0 29.6 22.9 74 3.5 ENE 19 30 10 16 1007.1 1006.8 0.0
16/12:30pm 29.6 30.6 21.0 60 5.7 N 17 24 9 13 1007.3 1007.0 0.0
16/12:00pm 29.3 32.2 22.5 67 4.6 N 11 17 6 9 1007.5 1007.2 0.0
16/11:30am 26.7 28.9 21.2 72 3.7 E 11 17 6 9 1007.7 1007.4 0.0
16/11:00am 27.2 30.9 22.2 74 3.4 N 6 13 3 7 1007.7 1007.4 0.0
16/10:30am 25.2 27.5 20.7 76 3.0 NW 9 15 5 8 1007.9 1007.6 0.0
16/10:00am 23.6 26.0 20.9 85 1.8 NNW 9 13 5 7 1008.2 1007.9 0.0
16/09:30am 22.4 24.7 20.7 90 1.1 NNW 9 13 5 7 1008.1 1007.8 0.0
16/09:00am 21.7 23.9 20.5 93 0.8 NNW 9 17 5 9 1007.9 1007.6 16.2
16/08:30am 21.2 23.3 20.2 94 0.6 NNW 9 17 5 9 1008.0 1007.7 16.2
16/08:00am 21.4 24.1 20.7 96 0.5 NNW 7 11 4 6 1007.9 1007.6 16.2
16/07:30am 20.9 24.4 20.4 97 0.3 NW 2 7 1 4 1007.6 1007.3 16.2
16/07:00am 20.5 22.5 20.0 97 0.3 NW 9 13 5 7 1007.2 1006.9 16.2
16/06:30am 20.1 22.4 19.4 96 0.4 NNW 6 7 3 4 1006.8 1006.5 16.2
16/06:00am 20.2 22.4 19.5 96 0.4 NNW 7 11 4 6 1006.2 1005.9 16.2
16/05:30am 20.4 22.3 19.7 96 0.4 NNW 9 13 5 7 1006.1 1005.8 16.0
16/05:00am 20.5 22.0 19.8 96 0.4 W 11 17 6 9 1006.2 1005.9 16.0
16/04:30am 20.4 21.8 19.6 95 0.5 WSW 11 17 6 9 1005.7 1005.4 16.0
16/04:00am 20.4 21.8 19.6 95 0.5 WNW 11 20 6 11 1005.4 1005.1 16.0
16/03:30am 20.6 21.4 19.9 96 0.4 WNW 15 22 8 12 1006.2 1005.9 16.0
16/03:00am 21.4 21.9 20.9 97 0.3 NNW 19 44 10 24 1006.3 1006.0 16.0
16/02:58am 21.3 21.6 20.8 97 0.3 NNW 20 44 11 24 1005.8 1005.5 16.0
16/02:30am 21.1 18.1 20.6 97 0.3 N 37 56 20 30 1003.8 1003.5 16.0
16/02:18am 21.1 18.5 20.6 97 0.3 N 35 54 19 29 1004.4 1004.1 15.6
16/02:12am 21.3 20.1 20.8 97 0.3 NNE 28 46 15 25 1004.8 1004.5 15.2
16/02:00am 21.5 22.1 21.0 97 0.3 NE 19 28 10 15 1006.7 1006.4 13.8
16/01:30am 21.4 21.8 20.7 96 0.5 SSE 19 28 10 15 1008.3 1008.0 11.2
16/01:00am 21.5 22.6 20.5 94 0.6 SSW 15 22 8 12 1009.3 1009.0 3.0
16/12:30am 22.3 23.2 20.0 87 1.5 SW 15 28 8 15 1009.2 1008.9 0.4
16/12:00am 22.6 23.6 20.3 87 1.5 N 15 22 8 12 1008.4 1008.1 0.4
 
Date/Time
EDT
Temp
°C
App
Temp
°C
Dew
Point
°C
Rel
Hum
%
Delta-T
°C
Wind Press
QNH
hPa
Press
MSL
hPa
Rain since
9am
mm
Dir  Spd
km/h
Gust
km/h
Spd
kts
Gust
kts
15/11:30pm 22.5 23.0 20.0 86 1.6 N 17 30 9 16 1008.5 1008.2 0.4
15/11:00pm 22.4 23.4 20.3 88 1.4 N 15 20 8 11 1008.6 1008.3 0.4
15/10:30pm 22.2 23.0 20.7 91 1.0 N 17 24 9 13 1008.3 1008.0 0.2
15/10:00pm 22.2 23.5 20.8 92 0.9 N 15 22 8 12 1007.9 1007.6 0.2
15/09:30pm 22.5 23.5 21.0 91 1.0 N 17 24 9 13 1007.9 1007.6 0.2
15/09:00pm 23.7 23.3 20.2 81 2.3 N 22 37 12 20 1007.4 1007.1 0.0
15/08:30pm 24.5 24.4 20.0 76 2.9 N 20 32 11 17 1007.4 1007.1 0.0
15/08:00pm 24.7 23.9 20.0 75 3.1 N 24 37 13 20 1007.4 1007.1 0.0
15/07:30pm 24.7 23.6 19.5 73 3.3 N 24 43 13 23 1006.7 1006.4 0.0
15/07:00pm 24.8 23.2 19.2 71 3.6 NNE 26 41 14 22 1005.2 1004.9 0.0
15/06:48pm 24.9 23.8 19.5 72 3.5 NNE 24 41 13 22 1004.3 1004.0 0.0
15/06:30pm 25.2 23.6 19.1 69 3.9 NNE 26 39 14 21 1006.3 1006.0 0.0
15/06:22pm 25.5 23.8 18.9 67 4.2 NNE 26 39 14 21 1006.8 1006.5 0.0
15/06:19pm 25.7 24.1 19.1 67 4.2 NNE 26 46 14 25 1008.9 1008.6 0.0
15/06:00pm 26.2 24.5 18.9 64 4.7 NNE 26 44 14 24 1006.2 1005.9 0.0
15/05:30pm 27.0 24.8 18.8 60 5.3 NNE 28 46 15 25 1006.3 1006.0 0.0
15/05:00pm 27.5 26.0 18.5 58 5.8 NNE 24 41 13 22 1006.0 1005.7 0.0
15/04:30pm 28.0 25.8 18.7 57 6.0 NNE 28 43 15 23 1006.2 1005.9 0.0
15/04:00pm 29.0 27.3 18.1 51 7.0 NNE 24 39 13 21 1006.7 1006.4 0.0
15/03:30pm 28.3 27.0 18.1 54 6.5 NNE 22 39 12 21 1007.0 1006.7 0.0
15/03:00pm 28.6 26.5 17.2 50 7.2 NNE 24 41 13 22 1007.5 1007.2 0.0
15/02:30pm 29.9 29.4 19.0 52 7.1 NNE 20 37 11 20 1007.7 1007.4 0.0
15/02:00pm 29.1 27.4 17.3 49 7.5 NNE 22 35 12 19 1008.0 1007.7 0.0
15/01:30pm 29.7 28.8 18.2 50 7.4 NNE 20 33 11 18 1008.2 1007.9 0.0
15/01:00pm 29.8 29.4 18.9 52 7.1 NE 19 30 10 16 1008.5 1008.2 0.0
15/12:30pm 29.7 28.8 17.8 48 7.6 NNE 19 33 10 18 1008.8 1008.5 0.0
15/12:00pm 30.7 31.3 19.4 51 7.4 NE 15 28 8 15 1008.8 1008.5 0.0
15/11:30am 28.6 28.4 18.4 54 6.5 NNE 17 26 9 14 1009.0 1008.7 0.0
15/11:00am 27.2 28.3 18.8 60 5.4 NNE 11 22 6 12 1009.3 1009.0 0.0
15/10:30am 26.6 27.4 19.0 63 4.9 N 13 20 7 11 1009.5 1009.2 0.0
15/10:00am 27.9 27.7 18.6 57 6.0 N 17 26 9 14 1009.7 1009.4 0.0

Other formats

Comma delimited format used in spreadsheet applications
http://www.bom.gov.au/fwo/IDN60801/IDN60801.94598.axf

JavaScript Object Notation format (JSON) in row-major order
http://www.bom.gov.au/fwo/IDN60801/IDN60801.94598.json

Data quality

Most of these data are generated automatically and are frequently updated. Quality checks on data are not normally performed. It is possible for incorrect values to appear. Refer to information at About Latest Weather Observations and please check the disclaimer before using these data.